Terminal Aerodrome Forecast
Issued by NWS

Current Version | Previous Version | Text Only | Print | Product List | Glossary On
Versions: 1 2 3 4 5 6 7 8 9 10 11 12 13 14
000
FTUS46 KSEW 291200 AAA
TAFBFI
TAF AMD
KBFI 291209Z 2912/3012 20005KT P6SM OVC007
     FM291700 22007KT P6SM BKN012 OVC025
     FM292000 24008KT P6SM BKN030 BKN050=

USA.gov is the U.S. government's official web portal to all federal, state and local government web resources and services.